Sumisemaru No.5 — JE3162 — position and weather

sailwx.info

Track history (hours):
 
Tides and Currents Weather Stations Pressure Air Temp Water Temp Dewpoint Dewpoint Depression Visibility Wind Speed Wind Dir Waves Ship Positions

Sumisemaru No.5

Last reported at 2016-Aug-24 17:32 UTC. Time now 2016-Aug-25 06:15 UTC.
Position N 35°12' E 140°35'.

Length 96 m; draft 6.8 m.

Type: Cargo ship. MMSI: 431700423.

Date/timePositionNaut miles runAvg speedWind from/ knotsBaromVisibWave heightAir tempDewpointWater temp
2016-Aug-24 17:32N 35°12' E 140°35'1212.3
2016-Aug-24 16:31N 35°23' E 140°41'3712.4
2016-Aug-24 13:33N 35°58' E 140°56'7 0.3
2016-Aug-23 16:30N 36°05' E 140°55'1411.3
2016-Aug-23 15:15N 35°51' E 140°56'911.4
2016-Aug-23 14:29N 35°42' E 140°56'  
2016-Aug-18 11:33N 34°14' E 135°07'1 0.3
2016-Aug-18 08:14N 34°14' E 135°08'0 0.1
2016-Aug-18 07:25N 34°14' E 135°08'0 0.0
2016-Aug-17 21:31N 34°14' E 135°08'3 0.7
2016-Aug-17 17:25N 34°15' E 135°04'0 0.0
2016-Aug-17 16:04N 34°15' E 135°04'23 1.2
2016-Aug-16 21:09N 34°37' E 134°55'812.8
2016-Aug-16 20:33N 34°36' E 135°04'1312.9
2016-Aug-16 19:33N 34°37' E 135°20'7 0.5
2016-Aug-16 07:09N 34°40' E 135°27'8 2.1
2016-Aug-16 03:21N 34°36' E 135°18'0 0.1
2016-Aug-16 02:21N 34°36' E 135°18'0 0.0
2016-Aug-15 23:15N 34°36' E 135°18'0 0.0
2016-Aug-15 19:27N 34°36' E 135°18'0 0.0
2016-Aug-15 17:21N 34°36' E 135°18'0 0.0
2016-Aug-15 15:33N 34°36' E 135°18'0 0.0
2016-Aug-15 14:27N 34°36' E 135°18'7 8.0
2016-Aug-15 13:33N 34°35' E 135°10'5 0.3
2016-Aug-14 21:33N 34°35' E 135°04'2110.6
2016-Aug-14 19:33N 34°14' E 135°06'  
Track history (hours):
 
Tides and Currents Weather Stations Pressure Air Temp Water Temp Dewpoint Dewpoint Depression Visibility Wind Speed Wind Dir Waves Ship Positions

Sumisemaru No.5

Last reported at 2016-Aug-24 17:32 UTC. Time now 2016-Aug-25 06:15 UTC.
Position N 35°12' E 140°35'.

Length 96 m; draft 6.8 m.

Type: Cargo ship. MMSI: 431700423.

Date/timePositionNaut miles runAvg speedWind from/ knotsBaromVisibWave heightAir tempDewpointWater temp
2016-Aug-24 17:32N 35°12' E 140°35'1212.3
2016-Aug-24 16:31N 35°23' E 140°41'3712.4
2016-Aug-24 13:33N 35°58' E 140°56'7 0.3
2016-Aug-23 16:30N 36°05' E 140°55'1411.3
2016-Aug-23 15:15N 35°51' E 140°56'911.4
2016-Aug-23 14:29N 35°42' E 140°56'  
2016-Aug-18 11:33N 34°14' E 135°07'1 0.3
2016-Aug-18 08:14N 34°14' E 135°08'0 0.1
2016-Aug-18 07:25N 34°14' E 135°08'0 0.0
2016-Aug-17 21:31N 34°14' E 135°08'3 0.7
2016-Aug-17 17:25N 34°15' E 135°04'0 0.0
2016-Aug-17 16:04N 34°15' E 135°04'23 1.2
2016-Aug-16 21:09N 34°37' E 134°55'812.8
2016-Aug-16 20:33N 34°36' E 135°04'1312.9
2016-Aug-16 19:33N 34°37' E 135°20'7 0.5
2016-Aug-16 07:09N 34°40' E 135°27'8 2.1
2016-Aug-16 03:21N 34°36' E 135°18'0 0.1
2016-Aug-16 02:21N 34°36' E 135°18'0 0.0
2016-Aug-15 23:15N 34°36' E 135°18'0 0.0
2016-Aug-15 19:27N 34°36' E 135°18'0 0.0
2016-Aug-15 17:21N 34°36' E 135°18'0 0.0
2016-Aug-15 15:33N 34°36' E 135°18'0 0.0
2016-Aug-15 14:27N 34°36' E 135°18'7 8.0
2016-Aug-15 13:33N 34°35' E 135°10'5 0.3
2016-Aug-14 21:33N 34°35' E 135°04'2110.6
2016-Aug-14 19:33N 34°14' E 135°06'  

Dump ship's entire track history